Airfield :
LOGIN :

Register | Disclaimer

   EN    FR    IT 

 










Legend :    VFR   Marginal VFR   IFR   Intensive IFR   Very Intensive IFR
Visi :
Ceiling :
>= 8 km
>= 3000ft
5 to 8 km
1000 to 3000 ft
1500m to 5 km
500 to 1000 ft
800 to 1500m
200 to 500 ft
< 800m
< 200 ft
Symbols :   Thunderstorms  Fog  Heavy snow  Heavy precipitations  Wind > 20 kt
SIGMETs :     Misc.  Thunderstorms  Icing  Turbulence  Mountain Waves  Volcanic Ashes






- Airport Elevation : 148 ft
- IATA code : KHE


UKOH - Chernobayevka

CURRENT METAR :
  • 142000Z 09006MPS CAVOK 07/06 Q1017 R03/CLRD65 NOSIG

EXPIRED METARs :
  • 141930Z 09007MPS CAVOK 08/06 Q1017 R03/CLRD65 NOSIG
  • 141900Z 08007MPS CAVOK 08/06 Q1017 R03/CLRD65 NOSIG
  • 141830Z 09008MPS CAVOK 08/06 Q1017 R03/CLRD65 NOSIG

TAF TAF UKOH
Valid from the 14 at 18:00 until the 15 at 03:00 UTC


141703Z 1418/1503 08006G12MPS 9999 BKN010
TEMPO 1418/1421 09009G16MPS



MET'MAP, your aeronautical weather chart ! - Copyright ORBIFLY December 2007 - Disclaimer

ORBIFLY MET'MAP TEAM :

Programming & Development : Alexandra Zaïnal
Concept & Development : Baudouin d'Aumeries
Co-Development & Prog : Marc-Olivier Méhu
Technical & hardware support : Manuel Goepfert

Contact : metmap@orbifly.com




SOURCES & CREDITS :

   NOAA